Black Rock, Arkansas
Current Conditions -  °F | °C
As of 3:15 AM on Sunday 21 Dec 2014 (Local Time) from KARG Reporting Station
Overcast Overcast  
Wind Chill: 34°   Ceiling: 2400
Heat Index: 39°   Visibility: 6mi
Dew Point: 34°   Wind: 7mph
Humidity: 81%   Direction: 90°E
Pressure: 30.22"   Gusts: NA
Location:  36.11°N, 91.1°W
Report Text: KARG 210915Z AUTO 09006KT 6SM OVC024 04/01 A3022 RMK AO1
Loading
Personal Weather Stations






























Interactive Weather Map New forecast layout! Learn more

10-Day Weather Forecast

Advertisements
Track Severe Weather on mobile